createdAt,value
2018-12-24T00:00:41.580Z,983.25
2018-12-24T00:01:41.583Z,983.29
2018-12-24T00:02:41.846Z,983.26
2018-12-24T00:03:41.444Z,983.36
2018-12-24T00:04:41.564Z,983.30
2018-12-24T00:05:41.400Z,983.33
2018-12-24T00:07:41.108Z,983.48
2018-12-24T00:08:41.068Z,983.49
2018-12-24T00:09:41.023Z,983.55
2018-12-24T00:10:40.983Z,983.50
2018-12-24T00:11:40.937Z,983.49
2018-12-24T00:12:40.896Z,983.47
2018-12-24T00:13:40.855Z,983.45
2018-12-24T00:14:40.816Z,983.48
2018-12-24T00:15:40.769Z,983.55
2018-12-24T00:16:40.731Z,983.52
2018-12-24T00:17:40.687Z,983.59
2018-12-24T00:18:40.644Z,983.65
2018-12-24T00:19:40.609Z,983.59
2018-12-24T00:20:40.565Z,983.62
2018-12-24T00:21:40.523Z,983.60
2018-12-24T00:22:40.482Z,983.59
2018-12-24T00:23:40.441Z,983.59
2018-12-24T00:24:40.396Z,983.62
2018-12-24T00:25:40.470Z,983.65
2018-12-24T00:26:40.310Z,983.73
2018-12-24T00:27:40.275Z,983.73
2018-12-24T00:28:40.334Z,983.74
2018-12-24T00:29:40.187Z,983.69
2018-12-24T00:30:40.144Z,983.75
2018-12-24T00:31:40.627Z,983.74
2018-12-24T00:32:40.064Z,983.75
2018-12-24T00:33:40.021Z,983.68
2018-12-24T00:34:39.982Z,983.83
2018-12-24T00:35:39.936Z,983.80
2018-12-24T00:36:39.896Z,983.80
2018-12-24T00:37:40.621Z,983.80
2018-12-24T00:38:39.810Z,983.85
2018-12-24T00:39:39.775Z,983.87
2018-12-24T00:40:39.734Z,983.95
2018-12-24T00:41:39.691Z,984.00
2018-12-24T00:42:39.649Z,984.09
2018-12-24T00:43:39.602Z,984.18
2018-12-24T00:44:39.561Z,984.09
2018-12-24T00:45:39.522Z,984.17
2018-12-24T00:46:39.481Z,984.27
2018-12-24T00:47:39.440Z,984.23
2018-12-24T00:48:39.396Z,984.31
2018-12-24T00:49:39.354Z,984.34
2018-12-24T00:50:39.309Z,984.32
2018-12-24T00:51:39.273Z,984.39
2018-12-24T00:52:39.355Z,984.45
2018-12-24T00:53:39.194Z,984.41
2018-12-24T00:54:39.148Z,984.48
2018-12-24T00:55:39.101Z,984.49
2018-12-24T00:56:39.069Z,984.56
2018-12-24T00:57:39.017Z,984.68
2018-12-24T00:58:38.975Z,984.55
2018-12-24T00:59:38.938Z,984.57
2018-12-24T01:00:38.895Z,984.66
2018-12-24T01:01:39.627Z,984.70
2018-12-24T01:02:38.806Z,984.77
2018-12-24T01:03:38.771Z,984.81
2018-12-24T01:04:38.727Z,984.88
2018-12-24T01:05:38.683Z,984.93
2018-12-24T01:06:38.644Z,985.01
2018-12-24T01:07:38.600Z,985.06
2018-12-24T01:08:38.559Z,985.18
2018-12-24T01:09:38.515Z,985.14
2018-12-24T01:10:38.473Z,985.16
2018-12-24T01:11:38.435Z,985.20
2018-12-24T01:12:38.392Z,985.24
2018-12-24T01:13:38.351Z,985.30
2018-12-24T01:14:38.308Z,985.27
2018-12-24T01:15:38.262Z,985.36
2018-12-24T01:16:38.222Z,985.32
2018-12-24T01:17:38.184Z,985.47
2018-12-24T01:18:38.142Z,985.42
2018-12-24T01:19:38.096Z,985.46
2018-12-24T01:20:38.054Z,985.51
2018-12-24T01:21:38.015Z,985.52
2018-12-24T01:22:37.967Z,985.58
2018-12-24T01:23:37.933Z,985.61
2018-12-24T01:24:37.886Z,985.86
2018-12-24T01:25:37.844Z,985.66
2018-12-24T01:26:37.811Z,985.68
2018-12-24T01:27:37.755Z,985.76
2018-12-24T01:28:37.717Z,985.72
2018-12-24T01:29:37.673Z,985.76
2018-12-24T01:30:37.629Z,985.73
2018-12-24T01:31:37.596Z,985.66
2018-12-24T01:32:37.551Z,985.71
2018-12-24T01:33:37.505Z,985.77
2018-12-24T01:34:37.460Z,985.77
2018-12-24T01:35:37.424Z,985.77
2018-12-24T01:36:37.385Z,985.83
2018-12-24T01:37:37.343Z,985.86
2018-12-24T01:38:37.302Z,985.91
2018-12-24T01:39:37.249Z,985.93
2018-12-24T01:40:37.210Z,985.93
2018-12-24T01:41:37.166Z,985.99
2018-12-24T01:42:37.124Z,986.00
2018-12-24T01:43:37.086Z,986.02
2018-12-24T01:44:37.043Z,986.08
2018-12-24T01:45:37.003Z,986.04
2018-12-24T01:46:36.961Z,986.13
2018-12-24T01:47:36.913Z,986.21
2018-12-24T01:48:36.871Z,986.28
2018-12-24T01:49:36.829Z,986.19
2018-12-24T01:50:36.789Z,986.23
2018-12-24T01:51:36.742Z,986.28
2018-12-24T01:52:36.739Z,986.22
2018-12-24T01:53:36.658Z,986.31
2018-12-24T01:54:36.616Z,986.36
2018-12-24T01:55:36.579Z,986.25
2018-12-24T01:56:36.536Z,986.34
2018-12-24T01:57:36.495Z,986.35
2018-12-24T01:58:36.451Z,986.32
2018-12-24T01:59:36.406Z,986.29
2018-12-24T02:00:36.361Z,986.34
2018-12-24T02:01:36.320Z,986.44
2018-12-24T02:02:36.282Z,986.47
2018-12-24T02:03:36.241Z,986.52
2018-12-24T02:04:36.287Z,986.47
2018-12-24T02:05:36.153Z,986.52
2018-12-24T02:06:36.108Z,986.53
2018-12-24T02:07:36.091Z,986.55
2018-12-24T02:08:36.028Z,986.51
2018-12-24T02:09:35.987Z,986.49
2018-12-24T02:10:35.942Z,986.48
2018-12-24T02:11:35.897Z,986.42
2018-12-24T02:12:42.185Z,986.47
2018-12-24T02:13:35.812Z,986.46
2018-12-24T02:14:35.770Z,986.48
2018-12-24T02:15:35.742Z,986.52
2018-12-24T02:16:35.691Z,986.56
2018-12-24T02:17:35.649Z,986.59
2018-12-24T02:18:35.602Z,986.61
2018-12-24T02:19:35.559Z,986.61
2018-12-24T02:20:36.474Z,986.63
2018-12-24T02:21:35.476Z,986.61
2018-12-24T02:22:35.434Z,986.64
2018-12-24T02:23:35.386Z,986.63
2018-12-24T02:24:35.346Z,986.60
2018-12-24T02:25:35.303Z,986.62
2018-12-24T02:26:35.261Z,986.64
2018-12-24T02:27:35.222Z,986.64
2018-12-24T02:28:35.180Z,986.69
2018-12-24T02:29:35.141Z,986.72
2018-12-24T02:30:35.100Z,986.75
2018-12-24T02:31:35.052Z,986.74
2018-12-24T02:32:35.009Z,986.76
2018-12-24T02:33:34.964Z,986.81
2018-12-24T02:34:34.924Z,986.78
2018-12-24T02:35:34.883Z,986.86
2018-12-24T02:36:34.844Z,986.89
2018-12-24T02:37:34.796Z,986.89
2018-12-24T02:38:34.754Z,986.90
2018-12-24T02:39:34.720Z,986.86
2018-12-24T02:40:34.673Z,986.89
2018-12-24T02:41:34.632Z,986.90
2018-12-24T02:42:34.588Z,986.93
2018-12-24T02:43:34.542Z,986.99
2018-12-24T02:44:34.500Z,986.99
2018-12-24T02:45:34.455Z,987.01
2018-12-24T02:46:34.419Z,987.05
2018-12-24T02:47:34.375Z,987.09
2018-12-24T02:48:34.335Z,987.14
2018-12-24T02:49:34.292Z,987.11
2018-12-24T02:50:34.249Z,987.23
2018-12-24T02:51:34.204Z,987.16
2018-12-24T02:52:34.166Z,987.19
2018-12-24T02:53:34.123Z,987.25
2018-12-24T02:54:34.081Z,987.30
2018-12-24T02:55:34.040Z,987.26
2018-12-24T02:56:33.991Z,987.28
2018-12-24T02:57:33.956Z,987.30
2018-12-24T02:58:33.909Z,987.28
2018-12-24T02:59:33.869Z,987.30
2018-12-24T03:00:33.830Z,987.29
2018-12-24T03:01:33.796Z,987.35
2018-12-24T03:02:33.806Z,987.39
2018-12-24T03:03:33.698Z,987.35
2018-12-24T03:04:33.654Z,987.38
2018-12-24T03:05:33.610Z,987.41
2018-12-24T03:06:33.570Z,987.45
2018-12-24T03:07:33.530Z,987.48
2018-12-24T03:08:33.489Z,987.54
2018-12-24T03:09:33.440Z,987.53
2018-12-24T03:10:33.400Z,987.52
2018-12-24T03:11:33.362Z,987.52
2018-12-24T03:12:33.321Z,987.56
2018-12-24T03:13:33.282Z,987.54
2018-12-24T03:14:33.249Z,987.61
2018-12-24T03:15:33.200Z,987.63
2018-12-24T03:16:33.146Z,987.62
2018-12-24T03:17:33.103Z,987.62
2018-12-24T03:18:33.064Z,987.68
2018-12-24T03:19:33.024Z,987.70
2018-12-24T03:20:32.994Z,987.70
2018-12-24T03:21:33.659Z,987.69
2018-12-24T03:22:32.898Z,987.72
2018-12-24T03:23:32.854Z,987.77
2018-12-24T03:24:32.809Z,987.80
2018-12-24T03:25:32.774Z,987.86
2018-12-24T03:26:32.727Z,987.82
2018-12-24T03:27:32.688Z,987.86
2018-12-24T03:28:32.641Z,987.84
2018-12-24T03:29:32.598Z,987.89
2018-12-24T03:30:33.159Z,987.95
2018-12-24T03:31:32.537Z,988.01
2018-12-24T03:32:32.478Z,987.99
2018-12-24T03:33:32.440Z,987.95
2018-12-24T03:34:32.392Z,987.97
2018-12-24T03:35:32.347Z,987.98
2018-12-24T03:36:32.306Z,987.97
2018-12-24T03:37:32.257Z,988.04
2018-12-24T03:38:32.221Z,988.03
2018-12-24T03:39:32.179Z,988.04
2018-12-24T03:40:32.252Z,988.03
2018-12-24T03:41:32.090Z,988.01
2018-12-24T03:42:32.661Z,988.01
2018-12-24T03:43:32.029Z,988.01
2018-12-24T03:44:31.970Z,988.04
2018-12-24T03:45:31.928Z,988.09
2018-12-24T03:46:31.885Z,988.11
2018-12-24T03:47:31.843Z,988.13
2018-12-24T03:48:31.797Z,988.14
2018-12-24T03:49:31.760Z,988.22
2018-12-24T03:50:31.713Z,988.16
2018-12-24T03:51:31.673Z,988.21
2018-12-24T04:06:34.103Z,988.19
2018-12-24T04:07:34.030Z,988.18
2018-12-24T04:08:33.985Z,988.22
2018-12-24T04:09:33.932Z,988.30
2018-12-24T04:10:33.892Z,988.27
2018-12-24T04:11:35.675Z,988.30
2018-12-24T04:12:33.806Z,988.36
2018-12-24T04:13:33.761Z,988.31
2018-12-24T04:14:33.716Z,988.30
2018-12-24T04:15:33.669Z,988.33
2018-12-24T04:16:33.624Z,988.38
2018-12-24T04:17:34.145Z,988.41
2018-12-24T04:18:33.540Z,988.47
2018-12-24T04:19:33.497Z,988.45
2018-12-24T04:20:33.457Z,988.49
2018-12-24T04:21:33.414Z,988.50
2018-12-24T04:22:33.397Z,988.62
2018-12-24T04:23:33.324Z,988.63
2018-12-24T04:24:33.281Z,988.65
2018-12-24T04:25:33.244Z,988.70
2018-12-24T04:26:33.198Z,988.68
2018-12-24T04:27:41.400Z,988.66
2018-12-24T04:28:33.649Z,988.69
2018-12-24T04:29:33.074Z,988.77
2018-12-24T04:30:33.027Z,988.77
2018-12-24T04:31:32.986Z,988.80
2018-12-24T04:32:32.946Z,988.82
2018-12-24T04:33:32.907Z,988.84
2018-12-24T04:34:32.972Z,988.89
2018-12-24T04:35:32.814Z,988.93
2018-12-24T04:36:32.770Z,988.97
2018-12-24T04:37:32.728Z,988.98
2018-12-24T04:38:32.688Z,988.96
2018-12-24T04:39:32.648Z,989.05
2018-12-24T04:40:32.667Z,989.07
2018-12-24T04:41:32.560Z,989.03
2018-12-24T04:42:32.520Z,989.10
2018-12-24T04:43:32.643Z,989.04
2018-12-24T04:44:32.448Z,989.07
2018-12-24T04:45:32.398Z,989.12
2018-12-24T04:46:32.352Z,989.09
2018-12-24T04:47:32.316Z,989.19
2018-12-24T04:48:33.149Z,989.19
2018-12-24T04:49:32.222Z,989.20
2018-12-24T04:50:32.181Z,989.21
2018-12-24T04:51:32.141Z,989.21
2018-12-24T04:52:32.113Z,989.24
2018-12-24T04:53:32.059Z,989.26
2018-12-24T04:54:32.017Z,989.29
2018-12-24T04:55:31.969Z,989.31
2018-12-24T04:56:31.926Z,989.39
2018-12-24T04:57:31.903Z,989.39
2018-12-24T04:58:31.846Z,989.41
2018-12-24T04:59:31.801Z,989.38
2018-12-24T05:00:31.833Z,989.45
2018-12-24T05:01:31.715Z,989.48
2018-12-24T05:02:31.675Z,989.46
2018-12-24T05:03:31.700Z,989.46
2018-12-24T05:04:31.603Z,989.48
2018-12-24T05:05:31.554Z,989.50
2018-12-24T05:06:31.514Z,989.49
2018-12-24T05:07:31.463Z,989.53
2018-12-24T05:08:31.420Z,989.53
2018-12-24T05:09:31.380Z,989.59
2018-12-24T05:10:31.339Z,989.61
2018-12-24T05:11:31.297Z,989.59
2018-12-24T05:12:31.359Z,989.63
2018-12-24T05:13:31.215Z,989.63
2018-12-24T05:14:31.169Z,989.69
2018-12-24T05:15:31.128Z,989.72
2018-12-24T05:16:31.089Z,989.80
2018-12-24T05:17:31.048Z,989.80
2018-12-24T05:18:31.005Z,989.84
2018-12-24T05:19:30.958Z,989.89
2018-12-24T05:20:30.914Z,989.90
2018-12-24T05:21:30.873Z,989.93
2018-12-24T05:22:30.834Z,989.98
2018-12-24T05:23:30.792Z,989.98
2018-12-24T05:24:30.752Z,989.98
2018-12-24T05:25:30.709Z,989.98
2018-12-24T05:26:30.666Z,989.96
2018-12-24T05:27:30.622Z,990.01
2018-12-24T05:28:30.576Z,990.05
2018-12-24T05:29:30.649Z,990.04
2018-12-24T05:30:30.497Z,990.09
2018-12-24T05:31:30.453Z,990.12
2018-12-24T05:32:30.409Z,990.17
2018-12-24T05:33:30.367Z,990.16
2018-12-24T05:34:30.328Z,990.25
2018-12-24T05:35:30.286Z,990.25
2018-12-24T05:36:30.255Z,990.28
2018-12-24T05:37:30.204Z,990.30
2018-12-24T05:38:30.160Z,990.32
2018-12-24T05:39:30.118Z,990.37
2018-12-24T05:40:30.073Z,990.43
2018-12-24T05:41:30.031Z,990.42
2018-12-24T05:42:29.991Z,990.45
2018-12-24T05:43:29.951Z,990.50
2018-12-24T05:44:29.910Z,990.46
2018-12-24T05:45:29.862Z,990.51
2018-12-24T05:46:29.822Z,990.49
2018-12-24T05:47:29.781Z,990.46
2018-12-24T05:48:29.742Z,990.52
2018-12-24T05:49:29.699Z,990.49
2018-12-24T05:50:29.655Z,990.60
2018-12-24T05:51:29.612Z,990.60
2018-12-24T05:52:29.568Z,990.61
2018-12-24T05:53:29.525Z,990.62
2018-12-24T05:54:29.486Z,990.72
2018-12-24T05:55:29.535Z,990.79
2018-12-24T05:56:29.404Z,990.77
2018-12-24T05:57:29.363Z,990.83
2018-12-24T05:58:29.324Z,990.84
2018-12-24T05:59:29.275Z,990.85
2018-12-24T06:00:29.234Z,990.90
2018-12-24T06:01:29.195Z,990.93
2018-12-24T06:02:29.151Z,990.96
2018-12-24T06:03:29.108Z,991.02
2018-12-24T06:04:29.063Z,991.01
2018-12-24T06:05:29.026Z,991.08
2018-12-24T06:06:28.981Z,991.15
2018-12-24T06:07:28.940Z,991.15
2018-12-24T06:08:28.905Z,991.20
2018-12-24T06:09:28.858Z,991.17
2018-12-24T06:10:28.819Z,991.19
2018-12-24T06:11:28.771Z,991.25
2018-12-24T06:12:28.727Z,991.25
2018-12-24T06:13:28.685Z,991.22
2018-12-24T06:14:28.645Z,991.28
2018-12-24T06:15:28.601Z,991.26
2018-12-24T06:16:28.568Z,991.33
2018-12-24T06:17:28.519Z,991.29
2018-12-24T06:18:28.477Z,991.32
2018-12-24T06:19:28.436Z,991.33
2018-12-24T06:20:28.398Z,991.37
2018-12-24T06:21:28.354Z,991.38
2018-12-24T06:22:28.320Z,991.38
2018-12-24T06:23:28.266Z,991.42
2018-12-24T06:24:28.222Z,991.44
2018-12-24T06:25:28.181Z,991.46
2018-12-24T06:26:28.140Z,991.53
2018-12-24T06:27:28.102Z,991.53
2018-12-24T06:28:28.061Z,991.52
2018-12-24T06:29:28.023Z,991.50
2018-12-24T06:30:27.977Z,991.55
2018-12-24T06:31:27.930Z,991.57
2018-12-24T06:32:27.885Z,991.60
2018-12-24T06:33:27.850Z,991.65
2018-12-24T06:34:27.806Z,991.70
2018-12-24T06:35:27.765Z,991.69
2018-12-24T06:36:27.720Z,991.76
2018-12-24T06:37:27.676Z,991.78
2018-12-24T06:38:27.643Z,991.78
2018-12-24T06:39:27.595Z,991.84
2018-12-24T06:40:27.557Z,991.87
2018-12-24T06:41:27.513Z,991.84
2018-12-24T06:42:27.471Z,991.87
2018-12-24T06:43:27.425Z,991.89
2018-12-24T06:44:27.381Z,991.93
2018-12-24T06:45:27.342Z,991.88
2018-12-24T06:46:27.302Z,991.92
2018-12-24T06:47:27.267Z,991.93
2018-12-24T06:48:27.223Z,991.89
2018-12-24T06:49:27.172Z,991.94
2018-12-24T06:50:27.132Z,991.98
2018-12-24T06:51:27.098Z,992.01
2018-12-24T06:52:27.052Z,992.05
2018-12-24T06:53:27.011Z,992.08
2018-12-24T06:54:26.968Z,992.04
2018-12-24T06:55:26.923Z,992.06
2018-12-24T06:56:26.880Z,992.06
2018-12-24T06:57:26.836Z,992.06
2018-12-24T06:58:26.799Z,992.10
2018-12-24T06:59:26.759Z,992.15
2018-12-24T07:00:26.717Z,992.12
2018-12-24T07:01:26.674Z,992.12
2018-12-24T07:02:26.630Z,992.10
2018-12-24T07:03:26.584Z,992.17
2018-12-24T07:04:26.543Z,992.19
2018-12-24T07:05:26.512Z,992.26
2018-12-24T07:06:26.463Z,992.28
2018-12-24T07:07:26.418Z,992.28
2018-12-24T07:08:26.374Z,992.34
2018-12-24T07:09:26.331Z,992.35
2018-12-24T07:10:26.291Z,992.35
2018-12-24T07:11:26.251Z,992.37
2018-12-24T07:12:26.215Z,992.41
2018-12-24T07:13:26.176Z,992.39
2018-12-24T07:14:26.127Z,992.41
2018-12-24T07:15:26.083Z,992.48
2018-12-24T07:16:26.047Z,992.44
2018-12-24T07:17:25.996Z,992.42
2018-12-24T07:18:25.956Z,992.47
2018-12-24T07:19:25.915Z,992.45
2018-12-24T07:20:25.878Z,992.49
2018-12-24T07:21:25.829Z,992.52
2018-12-24T07:22:25.789Z,992.54
2018-12-24T07:23:25.748Z,992.52
2018-12-24T07:24:25.713Z,992.56
2018-12-24T07:25:25.673Z,992.56
2018-12-24T07:26:25.623Z,992.57
2018-12-24T07:27:25.578Z,992.62
2018-12-24T07:28:25.535Z,992.64
2018-12-24T07:29:25.498Z,992.67
2018-12-24T07:30:25.452Z,992.64
2018-12-24T07:31:25.415Z,992.62
2018-12-24T07:32:25.377Z,992.68
2018-12-24T07:33:25.331Z,992.66
2018-12-24T07:34:32.387Z,992.71
2018-12-24T07:35:25.248Z,992.69
2018-12-24T07:36:25.200Z,992.75
2018-12-24T07:37:25.162Z,992.79
2018-12-24T07:38:25.119Z,992.83
2018-12-24T07:39:25.074Z,992.84
2018-12-24T07:40:25.030Z,992.81
2018-12-24T07:41:24.992Z,992.83
2018-12-24T07:42:24.949Z,992.84
2018-12-24T07:43:24.910Z,992.90
2018-12-24T07:44:24.869Z,992.85
2018-12-24T07:45:24.828Z,992.89
2018-12-24T07:46:24.784Z,992.85
2018-12-24T07:47:24.739Z,992.92
2018-12-24T07:48:24.695Z,992.92
2018-12-24T07:49:24.657Z,992.92
2018-12-24T07:50:24.613Z,992.95
2018-12-24T07:51:24.573Z,992.98
2018-12-24T07:52:24.534Z,992.96
2018-12-24T07:53:24.488Z,993.00
2018-12-24T07:54:24.446Z,993.07
2018-12-24T07:55:24.404Z,993.07
2018-12-24T07:56:24.369Z,993.09
2018-12-24T07:57:24.324Z,993.12
2018-12-24T07:58:24.280Z,993.13
2018-12-24T07:59:24.234Z,993.13
2018-12-24T08:00:24.192Z,993.15
2018-12-24T08:01:24.150Z,993.16
2018-12-24T08:02:24.109Z,993.22
2018-12-24T08:03:24.069Z,993.24
2018-12-24T08:04:24.033Z,993.21
2018-12-24T08:05:23.989Z,993.22
2018-12-24T08:06:23.942Z,993.25
2018-12-24T08:07:23.899Z,993.23
2018-12-24T08:08:23.855Z,993.25
2018-12-24T08:09:23.820Z,993.24
2018-12-24T08:10:23.778Z,993.20
2018-12-24T08:11:23.736Z,993.20
2018-12-24T08:12:23.688Z,993.28
2018-12-24T08:13:23.645Z,993.25
2018-12-24T08:14:23.604Z,993.30
2018-12-24T08:15:23.579Z,993.27
2018-12-24T08:16:23.523Z,993.30
2018-12-24T08:17:23.481Z,993.32
2018-12-24T08:18:23.446Z,993.37
2018-12-24T08:19:23.392Z,993.40
2018-12-24T08:20:23.354Z,993.40
2018-12-24T08:21:23.311Z,993.42
2018-12-24T08:22:23.266Z,993.46
2018-12-24T08:23:23.231Z,993.48
2018-12-24T08:24:23.187Z,993.49
2018-12-24T08:25:23.144Z,993.52
2018-12-24T08:26:23.100Z,993.52
2018-12-24T08:27:23.062Z,993.53
2018-12-24T08:28:23.019Z,993.49
2018-12-24T08:29:22.978Z,993.52
2018-12-24T08:30:22.941Z,993.55
2018-12-24T08:31:22.888Z,993.58
2018-12-24T08:32:22.853Z,993.63
2018-12-24T08:33:22.807Z,993.61
2018-12-24T08:34:22.766Z,993.65
2018-12-24T08:35:22.726Z,993.58
2018-12-24T08:36:22.682Z,993.60
2018-12-24T08:37:22.643Z,993.62
2018-12-24T08:38:22.601Z,993.62
2018-12-24T08:39:22.552Z,993.63
2018-12-24T08:40:22.512Z,993.62
2018-12-24T08:41:22.473Z,993.66
2018-12-24T08:42:22.435Z,993.70
2018-12-24T08:43:22.386Z,993.73
2018-12-24T08:44:22.345Z,993.73
2018-12-24T08:45:22.303Z,993.75
2018-12-24T08:46:22.264Z,993.79
2018-12-24T08:47:22.225Z,993.81
2018-12-24T08:48:22.188Z,993.89
2018-12-24T08:49:22.138Z,993.84
2018-12-24T08:50:22.098Z,993.99
2018-12-24T08:51:22.049Z,993.96
2018-12-24T08:52:22.009Z,994.01
2018-12-24T08:53:21.970Z,994.05
2018-12-24T08:54:21.924Z,994.12
2018-12-24T08:55:21.888Z,994.19
2018-12-24T08:56:21.845Z,994.20
2018-12-24T08:57:21.801Z,994.26
2018-12-24T08:58:21.758Z,994.29
2018-12-24T08:59:21.720Z,994.34
2018-12-24T09:00:21.676Z,994.37
2018-12-24T09:01:21.635Z,994.40
2018-12-24T09:02:21.596Z,994.41
2018-12-24T09:03:21.546Z,994.46
2018-12-24T09:04:21.509Z,994.43
2018-12-24T09:05:21.465Z,994.51
2018-12-24T09:06:21.421Z,994.48
2018-12-24T09:07:21.385Z,994.51
2018-12-24T09:08:21.340Z,994.54
2018-12-24T09:09:21.305Z,994.57
2018-12-24T09:10:21.262Z,994.62
2018-12-24T09:11:21.212Z,994.58
2018-12-24T09:12:21.172Z,994.65
2018-12-24T09:13:21.132Z,994.68
2018-12-24T09:14:21.091Z,994.66
2018-12-24T09:15:21.042Z,994.71
2018-12-24T09:16:21.003Z,994.77
2018-12-24T09:17:20.960Z,994.76
2018-12-24T09:18:20.922Z,994.77
2018-12-24T09:19:20.878Z,994.84
2018-12-24T09:20:20.836Z,994.86
2018-12-24T09:21:20.796Z,994.85
2018-12-24T09:22:20.756Z,994.92
2018-12-24T09:23:20.707Z,994.91
2018-12-24T09:24:20.671Z,994.92
2018-12-24T09:25:20.650Z,994.96
2018-12-24T09:26:20.582Z,994.93
2018-12-24T09:27:20.545Z,995.00
2018-12-24T09:28:20.503Z,995.04
2018-12-24T09:29:20.459Z,995.02
2018-12-24T09:30:20.414Z,995.08
2018-12-24T09:31:20.382Z,995.05
2018-12-24T09:32:20.333Z,995.11
2018-12-24T09:33:20.292Z,995.09
2018-12-24T09:34:20.251Z,995.13
2018-12-24T09:35:20.205Z,995.12
2018-12-24T09:36:20.164Z,995.14
2018-12-24T09:37:20.122Z,995.14
2018-12-24T09:38:20.078Z,995.16
2018-12-24T09:39:20.042Z,995.21
2018-12-24T09:40:19.997Z,995.25
2018-12-24T09:41:19.956Z,995.27
2018-12-24T09:42:19.916Z,995.29
2018-12-24T09:43:19.867Z,995.27
2018-12-24T09:44:19.828Z,995.33
2018-12-24T09:45:19.790Z,995.36
2018-12-24T09:46:19.749Z,995.41
2018-12-24T09:47:19.701Z,995.38
2018-12-24T09:48:19.663Z,995.42
2018-12-24T09:49:19.619Z,995.44
2018-12-24T09:50:19.577Z,995.47
2018-12-24T09:51:19.539Z,995.48
2018-12-24T09:52:19.496Z,995.55
2018-12-24T09:53:19.452Z,995.59
2018-12-24T09:54:19.413Z,995.67
2018-12-24T09:55:19.369Z,995.60
2018-12-24T09:56:19.327Z,995.63
2018-12-24T09:57:19.284Z,995.67
2018-12-24T09:58:19.241Z,995.69
2018-12-24T09:59:19.205Z,995.67
2018-12-24T10:00:19.717Z,995.67
2018-12-24T10:01:19.115Z,995.69
2018-12-24T10:02:19.079Z,995.69
2018-12-24T10:03:19.039Z,995.76
2018-12-24T10:04:18.993Z,995.71
2018-12-24T10:05:18.950Z,995.72
2018-12-24T10:19:36.548Z,995.77
2018-12-24T10:20:36.470Z,995.79
2018-12-24T10:21:36.427Z,995.79
2018-12-24T10:22:36.382Z,995.82
2018-12-24T10:23:36.338Z,995.86
2018-12-24T10:24:36.300Z,995.87
2018-12-24T10:25:36.251Z,995.82
2018-12-24T10:26:36.207Z,995.87
2018-12-24T10:27:36.162Z,995.89
2018-12-24T10:28:36.115Z,995.93
2018-12-24T10:29:36.074Z,995.95
2018-12-24T10:30:36.031Z,995.96
2018-12-24T10:31:35.989Z,996.00
2018-12-24T10:32:35.949Z,995.97
2018-12-24T10:33:35.899Z,996.03
2018-12-24T10:34:35.859Z,996.03
2018-12-24T10:35:35.818Z,996.03
2018-12-24T10:36:36.614Z,996.09
2018-12-24T10:37:35.774Z,995.98
2018-12-24T10:38:35.728Z,996.01
2018-12-24T10:39:35.648Z,996.03
2018-12-24T10:40:35.604Z,996.05
2018-12-24T10:41:35.561Z,995.99
2018-12-24T10:42:35.520Z,996.00
2018-12-24T10:43:36.112Z,996.00
2018-12-24T10:44:35.442Z,996.00
2018-12-24T10:45:35.394Z,996.01
2018-12-24T10:46:35.362Z,996.02
2018-12-24T10:47:35.306Z,996.04
2018-12-24T10:48:35.265Z,996.01
2018-12-24T10:49:35.228Z,996.04
2018-12-24T10:50:35.184Z,996.04
2018-12-24T10:51:35.139Z,996.04
2018-12-24T10:52:35.143Z,996.00
2018-12-24T10:53:35.054Z,996.05
2018-12-24T10:54:35.013Z,996.03
2018-12-24T10:55:34.973Z,996.00
2018-12-24T10:56:34.934Z,996.05
2018-12-24T10:57:34.894Z,996.00
2018-12-24T10:58:34.847Z,996.01
2018-12-24T10:59:34.802Z,996.00
2018-12-24T11:00:34.760Z,996.08
2018-12-24T11:01:34.717Z,996.01
2018-12-24T11:02:34.677Z,996.02
2018-12-24T11:03:34.636Z,996.01
2018-12-24T11:04:34.597Z,996.08
2018-12-24T11:05:34.564Z,996.06
2018-12-24T11:06:34.511Z,996.07
2018-12-24T11:07:34.472Z,996.13
2018-12-24T11:08:34.430Z,996.11
2018-12-24T11:09:34.387Z,996.11
2018-12-24T11:10:34.345Z,996.15
2018-12-24T11:11:34.302Z,996.14
2018-12-24T11:12:34.257Z,996.17
2018-12-24T11:13:34.215Z,996.18
2018-12-24T11:14:34.176Z,996.20
2018-12-24T11:15:34.136Z,996.19
2018-12-24T11:16:34.094Z,996.22
2018-12-24T11:17:34.055Z,996.24
2018-12-24T11:18:34.009Z,996.23
2018-12-24T11:19:34.051Z,996.24
2018-12-24T11:20:33.950Z,996.22
2018-12-24T11:21:33.885Z,996.21
2018-12-24T11:22:33.844Z,996.22
2018-12-24T11:23:33.796Z,996.24
2018-12-24T11:24:33.754Z,996.25
2018-12-24T11:25:34.615Z,996.25
2018-12-24T11:26:33.672Z,996.24
2018-12-24T11:27:33.632Z,996.18
2018-12-24T11:28:34.122Z,996.21
2018-12-24T11:29:33.553Z,996.22
2018-12-24T11:30:33.510Z,996.27
2018-12-24T11:31:33.462Z,996.23
2018-12-24T11:32:33.419Z,996.25
2018-12-24T11:33:33.378Z,996.25
2018-12-24T11:34:33.338Z,996.26
2018-12-24T11:35:33.297Z,996.24
2018-12-24T11:36:33.259Z,996.25
2018-12-24T11:37:33.212Z,996.22
2018-12-24T11:38:33.171Z,996.19
2018-12-24T11:39:33.129Z,996.19
2018-12-24T11:40:33.090Z,996.19
2018-12-24T11:41:33.049Z,996.18
2018-12-24T11:42:33.005Z,996.20
2018-12-24T11:43:32.965Z,996.22
2018-12-24T11:44:32.920Z,996.17
2018-12-24T11:45:34.081Z,996.21
2018-12-24T11:46:32.837Z,996.17
2018-12-24T11:47:32.796Z,996.18
2018-12-24T11:48:32.757Z,996.15
2018-12-24T11:49:32.778Z,996.18
2018-12-24T11:50:32.671Z,996.15
2018-12-24T11:51:32.626Z,996.15
2018-12-24T11:52:32.584Z,996.11
2018-12-24T11:53:32.550Z,996.11
2018-12-24T11:54:32.504Z,996.06
2018-12-24T11:55:32.462Z,996.08
2018-12-24T11:56:32.417Z,996.02
2018-12-24T11:57:32.386Z,996.05
2018-12-24T11:58:32.338Z,996.02
2018-12-24T11:59:32.295Z,996.02
2018-12-24T12:00:32.256Z,996.01
2018-12-24T12:01:32.217Z,996.09
2018-12-24T12:02:32.171Z,996.02
2018-12-24T12:03:32.627Z,996.05
2018-12-24T12:04:32.087Z,996.06
2018-12-24T12:05:32.042Z,996.03
2018-12-24T12:06:32.013Z,996.02
2018-12-24T12:07:31.966Z,996.01
2018-12-24T12:08:31.926Z,996.04
2018-12-24T12:09:31.876Z,996.07
2018-12-24T12:10:31.837Z,996.03
2018-12-24T12:11:31.796Z,996.06
2018-12-24T12:12:31.757Z,996.06
2018-12-24T12:13:31.717Z,996.07
2018-12-24T12:14:31.672Z,996.10
2018-12-24T12:15:31.629Z,996.10
2018-12-24T12:16:31.838Z,996.07
2018-12-24T12:17:31.542Z,996.02
2018-12-24T12:18:31.502Z,996.05
2018-12-24T12:19:31.463Z,996.04
2018-12-24T12:20:31.423Z,996.05
2018-12-24T12:21:31.383Z,996.01
2018-12-24T12:22:31.339Z,996.03
2018-12-24T12:23:31.328Z,996.07
2018-12-24T12:24:31.253Z,996.06
2018-12-24T12:25:31.228Z,996.05
2018-12-24T12:26:31.179Z,996.04
2018-12-24T12:27:31.128Z,996.09
2018-12-24T12:28:31.086Z,996.11
2018-12-24T12:29:31.053Z,996.14
2018-12-24T12:30:31.004Z,996.16
2018-12-24T12:31:30.964Z,996.12
2018-12-24T12:32:30.924Z,996.21
2018-12-24T12:33:30.882Z,996.12
2018-12-24T12:34:30.839Z,996.11
2018-12-24T12:35:30.794Z,996.19
2018-12-24T12:36:30.754Z,996.28
2018-12-24T12:37:30.709Z,996.42
2018-12-24T12:38:30.680Z,996.41
2018-12-24T12:39:30.629Z,996.37
2018-12-24T12:40:30.590Z,996.38
2018-12-24T12:41:30.544Z,996.43
2018-12-24T12:42:30.503Z,996.40
2018-12-24T12:43:30.466Z,996.45
2018-12-24T12:44:30.425Z,996.45
2018-12-24T12:45:30.382Z,996.42
2018-12-24T12:46:30.341Z,996.48
2018-12-24T12:47:30.296Z,996.51
2018-12-24T12:48:30.249Z,996.53
2018-12-24T12:49:30.206Z,996.52
2018-12-24T12:50:30.169Z,996.57
2018-12-24T12:51:30.188Z,996.55
2018-12-24T12:52:30.088Z,996.55
2018-12-24T12:53:30.050Z,996.60
2018-12-24T12:54:30.003Z,996.56
2018-12-24T12:55:29.959Z,996.63
2018-12-24T12:56:29.917Z,996.68